createdAt,value
2022-08-16T00:01:02.421Z,2.88
2022-08-16T00:03:32.267Z,2.30
2022-08-16T00:06:04.678Z,2.75
2022-08-16T00:08:36.886Z,2.97
2022-08-16T00:11:15.304Z,2.17
2022-08-16T00:13:53.726Z,1.60
2022-08-16T00:17:06.637Z,2.03
2022-08-16T00:19:16.982Z,2.58
2022-08-16T00:21:44.234Z,3.05
2022-08-16T00:24:12.701Z,2.88
2022-08-16T00:26:43.782Z,2.20
2022-08-16T00:29:15.682Z,2.20
2022-08-16T00:31:59.259Z,1.95
2022-08-16T00:34:43.951Z,2.78
2022-08-16T00:37:12.850Z,3.88
2022-08-16T00:39:44.669Z,3.47
2022-08-16T00:42:11.858Z,2.50
2022-08-16T00:44:40.004Z,2.50
2022-08-16T00:47:10.555Z,2.25
2022-08-16T00:49:39.553Z,2.60
2022-08-16T00:52:29.996Z,2.33
2022-08-16T00:54:59.008Z,3.25
2022-08-16T00:57:27.592Z,3.28
2022-08-16T01:00:20.265Z,2.88
2022-08-16T01:02:50.950Z,3.03
2022-08-16T01:05:19.485Z,2.08
2022-08-16T01:07:53.159Z,2.30
2022-08-16T01:10:32.048Z,2.60
2022-08-16T01:13:23.503Z,1.92
2022-08-16T01:16:10.475Z,3.17
2022-08-16T01:18:46.363Z,2.70
2022-08-16T01:21:24.752Z,2.28
2022-08-16T01:24:51.835Z,1.83
2022-08-16T01:27:17.397Z,2.53
2022-08-16T01:30:01.510Z,3.33
2022-08-16T01:32:33.690Z,1.88
2022-08-16T01:35:02.950Z,2.25
2022-08-16T01:37:35.936Z,3.30
2022-08-16T01:40:07.133Z,2.75
2022-08-16T01:42:35.205Z,2.72
2022-08-16T01:45:02.145Z,1.88
2022-08-16T01:47:29.854Z,2.08
2022-08-16T01:50:41.759Z,3.42
2022-08-16T01:52:47.437Z,1.80
2022-08-16T01:55:17.399Z,2.65
2022-08-16T01:57:53.584Z,2.55
2022-08-16T02:00:29.322Z,3.10
2022-08-16T02:02:57.040Z,2.50
2022-08-16T02:05:24.014Z,2.53
2022-08-16T02:07:51.927Z,2.72
2022-08-16T02:10:19.358Z,2.53
2022-08-16T02:12:51.629Z,2.25
2022-08-16T02:15:25.920Z,2.38
2022-08-16T02:17:54.274Z,2.45
2022-08-16T02:20:26.309Z,3.42
2022-08-16T02:22:55.915Z,2.78
2022-08-16T02:25:22.783Z,2.50
2022-08-16T02:27:51.125Z,1.83
2022-08-16T02:30:37.964Z,2.70
2022-08-16T02:33:11.880Z,2.20
2022-08-16T02:35:49.819Z,1.85
2022-08-16T02:38:22.483Z,3.10
2022-08-16T02:40:49.029Z,2.10
2022-08-16T02:43:16.028Z,2.83
2022-08-16T02:45:42.708Z,2.70
2022-08-16T02:48:29.190Z,3.10
2022-08-16T02:51:06.236Z,2.13
2022-08-16T02:53:43.431Z,2.47
2022-08-16T02:56:11.225Z,2.17
2022-08-16T02:58:39.048Z,2.90
2022-08-16T03:01:07.209Z,2.35
2022-08-16T03:04:39.566Z,1.70
2022-08-16T03:06:41.934Z,2.90
2022-08-16T03:09:13.748Z,3.03
2022-08-16T03:11:42.241Z,2.25
2022-08-16T03:14:08.887Z,2.78
2022-08-16T03:16:58.747Z,2.72
2022-08-16T03:19:25.365Z,3.50
2022-08-16T03:21:51.965Z,2.38
2022-08-16T03:24:27.553Z,1.65
2022-08-16T03:26:58.919Z,1.83
2022-08-16T03:29:32.007Z,2.65
2022-08-16T03:32:01.213Z,1.95
2022-08-16T03:34:28.986Z,2.35
2022-08-16T03:36:57.029Z,3.17
2022-08-16T03:39:23.800Z,1.50
2022-08-16T03:41:59.289Z,1.90
2022-08-16T03:44:43.465Z,3.65
2022-08-16T03:47:11.891Z,2.17
2022-08-16T03:49:38.738Z,2.47
2022-08-16T03:52:05.922Z,1.65
2022-08-16T03:54:32.646Z,2.13
2022-08-16T03:57:02.821Z,2.47
2022-08-16T03:59:31.881Z,2.22
2022-08-16T04:02:01.118Z,2.97
2022-08-16T04:04:33.268Z,2.47
2022-08-16T04:07:06.961Z,2.08
2022-08-16T04:09:35.463Z,2.45
2022-08-16T04:12:10.842Z,1.45
2022-08-16T04:14:52.734Z,1.92
2022-08-16T04:17:20.930Z,2.40
2022-08-16T04:19:47.599Z,2.42
2022-08-16T04:22:19.550Z,2.38
2022-08-16T04:24:54.337Z,2.53
2022-08-16T04:27:22.436Z,2.10
2022-08-16T04:29:52.216Z,2.55
2022-08-16T04:32:19.860Z,2.08
2022-08-16T04:34:46.639Z,2.40
2022-08-16T04:37:13.959Z,3.03
2022-08-16T04:39:46.866Z,2.78
2022-08-16T04:42:17.975Z,2.28
2022-08-16T04:44:54.190Z,2.03
2022-08-16T04:47:24.611Z,2.05
2022-08-16T04:49:52.269Z,1.38
2022-08-16T04:52:33.936Z,3.05
2022-08-16T04:55:12.055Z,3.03
2022-08-16T04:57:39.620Z,3.13
2022-08-16T05:00:30.354Z,2.42
2022-08-16T05:02:58.879Z,2.28
2022-08-16T05:05:32.766Z,2.78
2022-08-16T05:08:01.186Z,1.63
2022-08-16T05:10:47.651Z,1.98
2022-08-16T05:13:15.495Z,2.83
2022-08-16T05:15:42.231Z,2.10
2022-08-16T05:18:15.819Z,2.22
2022-08-16T05:20:54.263Z,2.47
2022-08-16T05:23:31.775Z,2.13
2022-08-16T05:25:59.699Z,2.88
2022-08-16T05:28:30.902Z,1.77
2022-08-16T05:31:04.626Z,3.40
2022-08-16T05:33:33.438Z,2.28
2022-08-16T05:36:00.498Z,2.72
2022-08-16T05:38:39.012Z,1.80
2022-08-16T05:41:06.904Z,2.13
2022-08-16T05:43:43.543Z,1.45
2022-08-16T05:46:28.752Z,2.00
2022-08-16T05:49:03.772Z,3.80
2022-08-16T05:51:37.726Z,2.90
2022-08-16T05:54:07.499Z,2.70
2022-08-16T05:56:34.221Z,2.35
2022-08-16T05:59:06.224Z,2.15
2022-08-16T06:01:38.535Z,2.10
2022-08-16T06:04:13.459Z,2.05
2022-08-16T06:06:57.296Z,2.83
2022-08-16T06:09:42.649Z,1.83
2022-08-16T06:12:12.276Z,2.60
2022-08-16T06:14:39.997Z,1.98
2022-08-16T06:17:07.242Z,2.17
2022-08-16T06:19:35.622Z,2.67
2022-08-16T06:22:02.415Z,2.40
2022-08-16T06:24:53.420Z,3.00
2022-08-16T06:27:15.467Z,2.75
2022-08-16T06:29:44.677Z,2.08
2022-08-16T06:32:26.193Z,2.30
2022-08-16T06:34:56.963Z,1.92
2022-08-16T06:37:37.006Z,1.90
2022-08-16T06:40:12.982Z,1.83
2022-08-16T06:42:47.641Z,1.85
2022-08-16T06:45:24.025Z,1.38
2022-08-16T06:47:53.466Z,1.83
2022-08-16T06:50:29.311Z,1.52
2022-08-16T06:53:08.737Z,1.92
2022-08-16T06:55:38.361Z,1.70
2022-08-16T06:58:08.375Z,1.67
2022-08-16T07:00:37.540Z,1.58
2022-08-16T07:03:27.781Z,1.60
2022-08-16T07:05:53.899Z,1.15
2022-08-16T07:08:20.853Z,1.75
2022-08-16T07:10:47.360Z,1.35
2022-08-16T07:13:26.525Z,1.70
2022-08-16T07:16:02.640Z,1.38
2022-08-16T07:18:29.121Z,1.35
2022-08-16T07:21:01.809Z,1.35
2022-08-16T07:23:34.986Z,1.50
2022-08-16T07:26:08.375Z,1.50
2022-08-16T07:28:35.455Z,1.83
2022-08-16T07:31:03.227Z,1.30
2022-08-16T07:33:51.749Z,1.30
2022-08-16T07:36:22.634Z,1.27
2022-08-16T07:38:49.969Z,1.27
2022-08-16T07:41:16.903Z,1.20
2022-08-16T07:43:43.737Z,1.30
2022-08-16T07:46:39.671Z,2.10
2022-08-16T07:49:02.371Z,1.40
2022-08-16T07:51:35.542Z,1.23
2022-08-16T07:54:09.370Z,1.20
2022-08-16T07:56:37.602Z,1.10
2022-08-16T07:59:07.574Z,1.17
2022-08-16T08:01:34.688Z,1.42
2022-08-16T08:04:02.580Z,1.73
2022-08-16T08:06:31.247Z,1.40
2022-08-16T08:08:59.478Z,1.10
2022-08-16T08:11:28.009Z,1.15
2022-08-16T08:13:56.714Z,1.20
2022-08-16T08:16:30.546Z,1.00
2022-08-16T08:19:02.281Z,1.10
2022-08-16T08:21:58.314Z,1.27
2022-08-16T08:24:18.384Z,1.30
2022-08-16T08:26:50.001Z,1.13
2022-08-16T08:29:22.806Z,0.95
2022-08-16T08:31:52.489Z,1.08
2022-08-16T08:34:21.120Z,1.10
2022-08-16T08:36:48.906Z,1.05
2022-08-16T08:39:21.359Z,1.58
2022-08-16T08:41:49.468Z,1.20
2022-08-16T08:44:28.387Z,1.10
2022-08-16T08:47:00.199Z,1.00
2022-08-16T08:49:46.673Z,1.15
2022-08-16T08:52:34.097Z,1.05
2022-08-16T08:55:03.301Z,1.00
2022-08-16T08:57:43.890Z,1.00
2022-08-16T09:00:13.650Z,1.10
2022-08-16T09:02:42.828Z,1.00
2022-08-16T09:05:14.866Z,1.77
2022-08-16T09:08:00.172Z,0.90
2022-08-16T09:10:29.392Z,1.10
2022-08-16T09:12:56.716Z,1.00
2022-08-16T09:15:23.968Z,1.00
2022-08-16T09:17:53.620Z,1.52
2022-08-16T09:20:23.698Z,0.95
2022-08-16T09:22:52.636Z,0.95
2022-08-16T09:25:25.709Z,1.20
2022-08-16T09:27:57.261Z,1.00
2022-08-16T09:30:43.408Z,1.02
2022-08-16T09:33:12.540Z,1.23
2022-08-16T09:35:42.739Z,0.88
2022-08-16T09:38:12.281Z,1.05
2022-08-16T09:40:43.354Z,1.02
2022-08-16T09:43:37.758Z,0.98
2022-08-16T09:45:59.047Z,1.83
2022-08-16T09:48:44.327Z,1.08
2022-08-16T09:51:13.356Z,1.38
2022-08-16T09:53:41.199Z,1.20
2022-08-16T09:56:23.001Z,1.33
2022-08-16T09:59:03.712Z,0.95
2022-08-16T10:01:33.519Z,0.90
2022-08-16T10:04:02.708Z,1.05
2022-08-16T10:06:33.330Z,1.08
2022-08-16T10:09:05.247Z,1.13
2022-08-16T10:11:55.322Z,1.08
2022-08-16T10:14:24.873Z,1.27
2022-08-16T10:17:05.007Z,0.82
2022-08-16T10:19:32.383Z,1.08
2022-08-16T10:21:59.814Z,1.00
2022-08-16T10:24:32.389Z,1.20
2022-08-16T10:27:18.632Z,1.08
2022-08-16T10:29:59.386Z,1.10
2022-08-16T10:32:30.374Z,1.15
2022-08-16T10:34:57.472Z,1.33
2022-08-16T10:37:32.722Z,0.80
2022-08-16T10:40:04.039Z,1.73
2022-08-16T10:42:30.987Z,1.08
2022-08-16T10:44:57.423Z,0.80
2022-08-16T10:47:23.947Z,0.77
2022-08-16T10:49:51.192Z,1.05
2022-08-16T10:52:18.183Z,1.10
2022-08-16T10:57:32.936Z,1.00
2022-08-16T11:00:01.194Z,0.93
2022-08-16T11:03:04.738Z,1.00
2022-08-16T11:05:16.426Z,1.10
2022-08-16T11:07:52.484Z,1.20
2022-08-16T11:13:57.298Z,1.30
2022-08-16T11:19:06.120Z,0.90
2022-08-16T11:22:22.925Z,0.90
2022-08-16T11:24:41.919Z,0.80
2022-08-16T11:27:24.183Z,0.88
2022-08-16T11:29:59.554Z,1.00
2022-08-16T11:32:31.890Z,1.02
2022-08-16T11:35:13.406Z,0.88
2022-08-16T11:41:00.228Z,0.80
2022-08-16T11:43:30.561Z,0.77
2022-08-16T11:45:59.893Z,1.10
2022-08-16T11:48:47.782Z,0.73
2022-08-16T11:51:14.382Z,1.00
2022-08-16T11:53:40.923Z,0.95
2022-08-16T11:56:08.296Z,1.23
2022-08-16T11:58:39.417Z,1.05
2022-08-16T12:01:08.039Z,1.17
2022-08-16T12:03:38.058Z,1.00
2022-08-16T12:06:24.618Z,1.05
2022-08-16T12:08:55.543Z,0.80
2022-08-16T12:11:22.375Z,1.13
2022-08-16T12:13:49.877Z,1.13
2022-08-16T12:16:20.613Z,1.00
2022-08-16T12:21:19.631Z,1.15
2022-08-16T12:23:46.217Z,1.17
2022-08-16T12:26:13.091Z,1.38
2022-08-16T12:28:54.489Z,1.08
2022-08-16T12:31:22.924Z,1.48
2022-08-16T12:33:50.752Z,0.90
2022-08-16T12:36:21.453Z,1.15
2022-08-16T12:38:53.176Z,1.48
2022-08-16T12:41:25.525Z,1.80
2022-08-16T12:43:52.717Z,1.15
2022-08-16T12:46:24.548Z,1.20
2022-08-16T12:49:00.110Z,1.05
2022-08-16T12:51:58.400Z,1.10
2022-08-16T12:54:23.597Z,1.17
2022-08-16T12:56:50.413Z,1.38
2022-08-16T12:59:20.334Z,1.13
2022-08-16T13:01:50.530Z,1.35
2022-08-16T13:04:24.606Z,1.25
2022-08-16T13:06:52.330Z,1.52
2022-08-16T13:09:26.611Z,1.05
2022-08-16T13:12:04.402Z,1.30
2022-08-16T13:14:40.046Z,1.27
2022-08-16T13:17:18.552Z,1.30
2022-08-16T13:22:32.839Z,1.25
2022-08-16T13:24:59.432Z,1.00
2022-08-16T13:27:59.055Z,1.27
2022-08-16T13:30:35.614Z,1.30
2022-08-16T13:33:00.435Z,1.17
2022-08-16T13:35:27.813Z,0.70
2022-08-16T13:38:01.351Z,1.48
2022-08-16T13:40:27.902Z,1.50
2022-08-16T13:42:54.435Z,1.00
2022-08-16T13:45:20.961Z,1.02
2022-08-16T13:47:48.623Z,1.40
2022-08-16T13:50:31.471Z,0.82
2022-08-16T13:53:07.376Z,1.00
2022-08-16T13:55:34.701Z,1.13
2022-08-16T13:58:37.118Z,0.57
2022-08-16T14:00:49.153Z,1.02
2022-08-16T14:03:21.098Z,0.90
2022-08-16T14:05:47.714Z,0.95
2022-08-16T14:08:14.300Z,0.95
2022-08-16T14:10:41.063Z,1.25
2022-08-16T14:13:07.573Z,0.82
2022-08-16T14:15:46.756Z,0.88
2022-08-16T14:18:17.487Z,0.70
2022-08-16T14:20:48.582Z,1.20
2022-08-16T14:23:17.889Z,1.23
2022-08-16T14:25:54.358Z,1.00
2022-08-16T14:28:21.913Z,1.20
2022-08-16T14:30:50.558Z,0.85
2022-08-16T14:33:17.975Z,1.08
2022-08-16T14:35:50.524Z,0.80
2022-08-16T14:38:19.191Z,1.40
2022-08-16T14:40:55.487Z,0.88
2022-08-16T14:43:23.780Z,0.82
2022-08-16T14:45:50.624Z,0.90
2022-08-16T14:48:24.651Z,1.30
2022-08-16T14:50:52.739Z,1.20
2022-08-16T14:53:19.280Z,1.10
2022-08-16T14:55:46.157Z,1.10
2022-08-16T14:58:19.386Z,0.88
2022-08-16T15:00:47.860Z,1.20
2022-08-16T15:03:17.725Z,1.30
2022-08-16T15:05:44.353Z,1.20
2022-08-16T15:08:11.218Z,1.27
2022-08-16T15:10:38.935Z,0.95
2022-08-16T15:13:09.558Z,1.02
2022-08-16T15:15:37.828Z,0.63
2022-08-16T15:18:06.248Z,1.10
2022-08-16T15:20:38.509Z,1.00
2022-08-16T15:23:08.430Z,1.20
2022-08-16T15:25:41.466Z,2.05
2022-08-16T15:28:24.067Z,1.30
2022-08-16T15:31:00.580Z,1.02
2022-08-16T15:33:32.184Z,0.90
2022-08-16T15:35:59.356Z,0.90
2022-08-16T15:38:54.602Z,1.02
2022-08-16T15:41:38.968Z,1.20
2022-08-16T15:44:12.429Z,0.85
2022-08-16T15:46:56.271Z,0.95
2022-08-16T15:49:37.047Z,1.08
2022-08-16T15:52:07.866Z,1.08
2022-08-16T15:54:38.112Z,1.38
2022-08-16T15:57:24.185Z,1.15
2022-08-16T15:59:52.546Z,0.80
2022-08-16T16:02:29.664Z,1.00
2022-08-16T16:05:01.903Z,1.08
2022-08-16T16:07:30.100Z,0.85
2022-08-16T16:09:58.317Z,1.10
2022-08-16T16:12:51.308Z,1.10
2022-08-16T16:15:16.449Z,1.20
2022-08-16T16:17:43.980Z,1.42
2022-08-16T16:20:17.722Z,1.00
2022-08-16T16:22:44.580Z,0.90
2022-08-16T16:25:11.487Z,1.17
2022-08-16T16:27:38.380Z,1.02
2022-08-16T16:30:18.277Z,1.20
2022-08-16T16:32:52.179Z,0.98
2022-08-16T16:35:18.778Z,0.75
2022-08-16T16:37:52.062Z,1.10
2022-08-16T16:40:28.931Z,1.55
2022-08-16T16:42:59.996Z,1.00
2022-08-16T16:45:34.902Z,1.00
2022-08-16T16:48:12.313Z,1.10
2022-08-16T16:50:44.619Z,0.90
2022-08-16T16:53:17.466Z,1.52
2022-08-16T16:55:52.280Z,0.98
2022-08-16T16:58:43.390Z,1.05
2022-08-16T17:01:20.438Z,1.02
2022-08-16T17:03:53.478Z,1.20
2022-08-16T17:06:20.580Z,1.10
2022-08-16T17:08:47.770Z,1.10
2022-08-16T17:11:17.944Z,1.42
2022-08-16T17:13:44.645Z,1.02
2022-08-16T17:16:18.438Z,1.20
2022-08-16T17:19:14.756Z,1.05
2022-08-16T17:21:34.405Z,0.95
2022-08-16T17:24:04.252Z,1.17
2022-08-16T17:26:49.129Z,1.27
2022-08-16T17:29:23.491Z,1.25
2022-08-16T17:32:02.583Z,1.27
2022-08-16T17:34:50.657Z,1.02
2022-08-16T17:37:17.892Z,1.30
2022-08-16T17:40:05.956Z,1.13
2022-08-16T17:42:33.608Z,1.05
2022-08-16T17:45:00.556Z,0.93
2022-08-16T17:47:27.176Z,0.80
2022-08-16T17:49:53.718Z,1.00
2022-08-16T17:52:20.209Z,1.33
2022-08-16T17:54:46.756Z,1.20
2022-08-16T17:57:13.534Z,0.95
2022-08-16T17:59:43.488Z,0.93
2022-08-16T18:02:44.199Z,1.00
2022-08-16T18:04:56.498Z,0.90
2022-08-16T18:07:22.981Z,1.00
2022-08-16T18:09:50.581Z,1.10
2022-08-16T18:12:51.158Z,1.02
2022-08-16T18:15:11.654Z,1.35
2022-08-16T18:17:38.213Z,2.33
2022-08-16T18:20:29.006Z,1.25
2022-08-16T18:23:06.980Z,1.10
2022-08-16T18:25:34.854Z,1.00
2022-08-16T18:28:01.442Z,1.08
2022-08-16T18:30:27.977Z,1.40
2022-08-16T18:32:54.592Z,0.90
2022-08-16T18:35:21.327Z,0.95
2022-08-16T18:37:48.402Z,0.98
2022-08-16T18:40:15.323Z,0.85
2022-08-16T18:42:52.983Z,1.00
2022-08-16T18:45:19.426Z,1.05
2022-08-16T18:47:45.860Z,1.00
2022-08-16T18:50:12.527Z,0.90
2022-08-16T18:52:48.327Z,1.08
2022-08-16T18:55:15.087Z,1.38
2022-08-16T18:57:42.253Z,0.98
2022-08-16T19:00:12.297Z,1.40
2022-08-16T19:02:56.018Z,1.13
2022-08-16T19:05:27.529Z,0.98
2022-08-16T19:07:54.001Z,1.17
2022-08-16T19:10:22.700Z,0.85
2022-08-16T19:12:49.715Z,1.00
2022-08-16T19:15:21.143Z,1.23
2022-08-16T19:17:48.015Z,0.98
2022-08-16T19:20:18.464Z,1.17
2022-08-16T19:23:05.114Z,0.95
2022-08-16T19:25:46.954Z,1.50
2022-08-16T19:28:49.281Z,1.30
2022-08-16T19:31:04.507Z,1.10
2022-08-16T19:33:31.185Z,0.98
2022-08-16T19:35:57.694Z,1.00
2022-08-16T19:38:24.194Z,1.00
2022-08-16T19:40:50.836Z,1.02
2022-08-16T19:43:17.437Z,1.10
2022-08-16T19:45:46.113Z,1.13
2022-08-16T19:48:12.974Z,1.05
2022-08-16T19:50:39.564Z,1.27
2022-08-16T19:53:12.340Z,0.90
2022-08-16T19:55:45.805Z,1.70
2022-08-16T19:58:15.271Z,1.35
2022-08-16T20:00:43.237Z,1.08
2022-08-16T20:03:13.505Z,1.20
2022-08-16T20:05:41.875Z,1.10
2022-08-16T20:08:11.187Z,1.10
2022-08-16T20:10:39.777Z,0.80
2022-08-16T20:13:15.031Z,1.17
2022-08-16T20:15:42.776Z,1.35
2022-08-16T20:18:21.496Z,1.05
2022-08-16T20:20:52.883Z,1.10
2022-08-16T20:23:24.496Z,1.20
2022-08-16T20:25:55.463Z,1.30
2022-08-16T20:28:33.412Z,1.40
2022-08-16T20:31:09.988Z,1.10
2022-08-16T20:33:36.619Z,0.90
2022-08-16T20:36:03.985Z,1.73
2022-08-16T20:38:31.188Z,1.25
2022-08-16T20:40:57.678Z,0.60
2022-08-16T20:43:24.152Z,1.40
2022-08-16T20:45:50.664Z,1.75
2022-08-16T20:48:17.215Z,1.05
2022-08-16T20:50:43.886Z,0.98
2022-08-16T20:53:11.106Z,1.38
2022-08-16T20:55:39.956Z,0.73
2022-08-16T20:58:06.437Z,0.88
2022-08-16T21:00:33.597Z,1.05
2022-08-16T21:03:01.524Z,1.13
2022-08-16T21:05:31.299Z,0.82
2022-08-16T21:07:58.791Z,1.30
2022-08-16T21:10:26.963Z,1.02
2022-08-16T21:12:56.236Z,1.30
2022-08-16T21:15:25.350Z,0.93
2022-08-16T21:17:52.239Z,0.82
2022-08-16T21:20:20.025Z,0.68
2022-08-16T21:22:54.943Z,0.93
2022-08-16T21:25:23.271Z,1.08
2022-08-16T21:28:40.793Z,0.75
2022-08-16T21:30:38.513Z,0.93
2022-08-16T21:33:07.808Z,1.20
2022-08-16T21:35:34.983Z,1.42
2022-08-16T21:38:29.676Z,1.02
2022-08-16T21:40:48.466Z,1.50
2022-08-16T21:43:20.229Z,1.05
2022-08-16T21:45:47.721Z,1.48
2022-08-16T21:48:14.349Z,1.80
2022-08-16T21:50:42.619Z,1.83
2022-08-16T21:53:11.835Z,1.00
2022-08-16T21:55:40.308Z,0.75
2022-08-16T21:58:07.068Z,1.63
2022-08-16T22:00:34.686Z,1.15
2022-08-16T22:03:03.430Z,1.27
2022-08-16T22:05:34.242Z,1.75
2022-08-16T22:08:01.673Z,1.50
2022-08-16T22:11:07.159Z,1.10
2022-08-16T22:13:26.544Z,1.55
2022-08-16T22:15:53.770Z,1.05
2022-08-16T22:18:20.686Z,1.45
2022-08-16T22:20:47.996Z,1.48
2022-08-16T22:23:18.500Z,1.20
2022-08-16T22:25:46.927Z,1.35
2022-08-16T22:28:13.938Z,1.10
2022-08-16T22:30:40.934Z,1.27
2022-08-16T22:33:27.318Z,1.05
2022-08-16T22:35:56.359Z,1.92
2022-08-16T22:38:54.324Z,1.05
2022-08-16T22:41:09.915Z,1.33
2022-08-16T22:43:36.410Z,1.42
2022-08-16T22:46:02.974Z,1.52
2022-08-16T22:48:30.921Z,1.33
2022-08-16T22:51:05.775Z,1.30
2022-08-16T22:53:32.345Z,1.45
2022-08-16T22:55:58.759Z,1.42
2022-08-16T22:58:34.211Z,1.33
2022-08-16T23:01:05.906Z,2.00
2022-08-16T23:03:32.792Z,1.73
2022-08-16T23:06:00.454Z,1.50
2022-08-16T23:08:38.337Z,2.03
2022-08-16T23:11:15.026Z,1.23
2022-08-16T23:13:50.033Z,1.23
2022-08-16T23:16:33.310Z,1.10
2022-08-16T23:19:06.789Z,1.80
2022-08-16T23:21:35.318Z,1.30
2022-08-16T23:24:03.261Z,1.02
2022-08-16T23:26:46.563Z,1.38
2022-08-16T23:29:23.820Z,2.03
2022-08-16T23:31:56.169Z,1.33
2022-08-16T23:34:23.441Z,1.23
2022-08-16T23:36:50.175Z,1.50
2022-08-16T23:39:17.238Z,1.60
2022-08-16T23:41:44.856Z,1.25
2022-08-16T23:44:57.520Z,1.52
2022-08-16T23:46:58.964Z,1.27
2022-08-16T23:50:02.623Z,1.10
2022-08-16T23:52:12.095Z,1.60
2022-08-16T23:54:38.580Z,1.40
2022-08-16T23:57:05.221Z,1.50
2022-08-16T23:59:35.943Z,2.22
